Time;durP1;ratioP1;P1;durP2;ratioP2;P2;SDS_P1;SDS_P2;PMS_P1;PMS_P2;Temp;Humidity;BMP_temperature;BMP_pressure;BME280_temperature;BME280_humidity;BME280_pressure;Samples;Min_cycle;Max_cycle;Signal;HPM_P1;HPM_P2
2023/05/15 00:00:24;;;;;;;;;;;15.70;99.90;;;;;;5058136;28;19935;-80
2023/05/15 00:02:50;;;;;;;;;;;15.70;99.90;;;;;;5061809;28;19928;-79
2023/05/15 00:05:17;;;;;;;;;;;15.60;99.90;;;;;;5064635;28;20014;-79
2023/05/15 00:07:44;;;;;;;;;;;15.60;99.90;;;;;;5080758;28;20373;-78
2023/05/15 00:10:11;;;;;;;;;;;15.60;99.90;;;;;;5081403;28;19951;-79
2023/05/15 00:12:37;;;;;;;;;;;15.60;99.90;;;;;;5082030;28;19924;-78
2023/05/15 00:15:04;;;;;;;;;;;15.60;99.90;;;;;;5082475;28;19924;-79
2023/05/15 00:17:31;;;;;;;;;;;15.60;99.90;;;;;;5080985;28;20504;-79
2023/05/15 00:19:59;;;;;;;;;;;15.50;99.90;;;;;;5081999;28;19928;-79
2023/05/15 00:22:26;;;;;;;;;;;15.50;99.90;;;;;;5082396;28;19958;-79
2023/05/15 00:24:53;;;;;;;;;;;15.50;99.90;;;;;;5062051;28;19954;-78
2023/05/15 00:27:19;;;;;;;;;;;15.50;99.90;;;;;;5059150;28;19978;-78
2023/05/15 00:29:46;;;;;;;;;;;15.40;99.90;;;;;;5081714;28;19932;-79
2023/05/15 00:32:13;;;;;;;;;;;15.40;99.90;;;;;;5081263;28;20301;-78
2023/05/15 00:34:40;;;;;;;;;;;15.40;99.90;;;;;;5063531;28;19936;-78
2023/05/15 00:37:07;;;;;;;;;;;15.40;99.90;;;;;;5060656;28;19928;-78
2023/05/15 00:39:35;;;;;;;;;;;15.40;99.90;;;;;;5071622;28;20377;-79
2023/05/15 00:42:02;;;;;;;;;;;15.40;99.90;;;;;;5064955;28;19963;-78
2023/05/15 00:44:29;;;;;;;;;;;15.30;99.90;;;;;;5062516;28;20365;-78
2023/05/15 00:46:56;;;;;;;;;;;15.40;99.90;;;;;;5063363;28;20012;-78
2023/05/15 00:49:25;;;;;;;;;;;15.40;99.90;;;;;;5064648;28;19950;-79
2023/05/15 00:51:53;;;;;;;;;;;15.40;99.90;;;;;;5080904;28;20037;-80
2023/05/15 00:54:19;;;;;;;;;;;15.40;99.90;;;;;;5063823;28;19936;-80
2023/05/15 00:56:49;;;;;;;;;;;15.40;99.90;;;;;;5081314;28;20000;-79
2023/05/15 00:59:16;;;;;;;;;;;15.40;99.90;;;;;;5062073;28;19924;-79
2023/05/15 01:01:44;;;;;;;;;;;15.40;99.90;;;;;;5077691;28;19984;-80
2023/05/15 01:04:10;;;;;;;;;;;15.30;99.90;;;;;;5060902;28;20002;-79
2023/05/15 01:06:37;;;;;;;;;;;15.30;99.90;;;;;;5069493;28;19928;-79
2023/05/15 01:09:04;;;;;;;;;;;15.20;99.90;;;;;;5047717;28;20767;-80
2023/05/15 01:11:34;;;;;;;;;;;15.20;99.90;;;;;;5060955;28;19935;-80
2023/05/15 01:14:05;;;;;;;;;;;15.20;99.90;;;;;;5065139;28;20011;-78
2023/05/15 01:16:32;;;;;;;;;;;15.20;99.90;;;;;;5051440;28;19959;-78
2023/05/15 01:18:58;;;;;;;;;;;15.20;99.90;;;;;;5079354;28;19932;-78
2023/05/15 01:21:29;;;;;;;;;;;15.20;99.90;;;;;;5064089;28;20439;-79
2023/05/15 01:24:02;;;;;;;;;;;15.20;99.90;;;;;;5082756;28;20384;-78
2023/05/15 01:26:47;;;;;;;;;;;15.10;99.90;;;;;;5080791;28;19928;-79
2023/05/15 01:29:24;;;;;;;;;;;15.00;99.90;;;;;;5080687;28;19924;-79
2023/05/15 01:31:53;;;;;;;;;;;15.00;99.90;;;;;;5075438;28;20018;-79
2023/05/15 01:34:20;;;;;;;;;;;14.90;99.90;;;;;;5082239;28;20027;-78
2023/05/15 01:36:48;;;;;;;;;;;14.90;99.90;;;;;;5083866;28;19924;-78
2023/05/15 01:39:15;;;;;;;;;;;14.90;99.90;;;;;;5065179;28;19924;-78
2023/05/15 01:41:45;;;;;;;;;;;14.90;99.90;;;;;;5078933;28;19928;-78
2023/05/15 01:44:24;;;;;;;;;;;14.90;99.90;;;;;;5084891;28;19967;-78
2023/05/15 01:46:52;;;;;;;;;;;14.90;99.90;;;;;;5083647;28;19924;-78
2023/05/15 01:49:19;;;;;;;;;;;14.80;99.90;;;;;;5083382;28;20357;-78
2023/05/15 01:51:48;;;;;;;;;;;14.80;99.90;;;;;;5083888;28;19990;-78
2023/05/15 01:54:14;;;;;;;;;;;14.80;99.90;;;;;;5083886;28;20008;-78
2023/05/15 01:56:42;;;;;;;;;;;14.80;99.90;;;;;;5064047;28;20043;-78
2023/05/15 01:59:10;;;;;;;;;;;14.80;99.90;;;;;;5083747;28;19924;-78
2023/05/15 02:01:37;;;;;;;;;;;14.80;99.90;;;;;;5083637;28;20454;-79
2023/05/15 02:04:04;;;;;;;;;;;14.80;99.90;;;;;;5066192;28;19924;-78
2023/05/15 02:06:31;;;;;;;;;;;14.80;99.90;;;;;;5083171;28;19985;-78
2023/05/15 02:08:59;;;;;;;;;;;14.70;99.90;;;;;;5083734;28;19978;-78
2023/05/15 02:11:26;;;;;;;;;;;14.70;99.90;;;;;;5083277;28;20682;-79
2023/05/15 02:13:53;;;;;;;;;;;14.70;99.90;;;;;;5084325;28;19936;-79
2023/05/15 02:16:20;;;;;;;;;;;14.60;99.90;;;;;;5075352;28;19925;-79
2023/05/15 02:18:47;;;;;;;;;;;14.50;99.90;;;;;;5066652;28;20672;-79
2023/05/15 02:21:14;;;;;;;;;;;14.40;99.90;;;;;;5084837;28;19924;-78
2023/05/15 02:23:41;;;;;;;;;;;14.30;99.90;;;;;;5083803;28;19971;-79
2023/05/15 02:26:13;;;;;;;;;;;14.20;99.90;;;;;;5066910;28;19924;-78
2023/05/15 02:28:43;;;;;;;;;;;14.10;99.90;;;;;;5083467;28;19935;-78
2023/05/15 02:31:30;;;;;;;;;;;14.10;99.90;;;;;;5084976;28;19924;-79
2023/05/15 02:34:15;;;;;;;;;;;14.10;99.90;;;;;;5082892;28;19932;-79
2023/05/15 02:36:43;;;;;;;;;;;14.10;99.90;;;;;;5084215;28;20247;-78
2023/05/15 02:39:10;;;;;;;;;;;14.10;99.90;;;;;;5083945;28;19931;-78
2023/05/15 02:41:37;;;;;;;;;;;14.10;99.90;;;;;;5083213;28;20027;-78
2023/05/15 02:44:04;;;;;;;;;;;14.10;99.90;;;;;;5083346;28;19964;-79
2023/05/15 02:46:30;;;;;;;;;;;14.00;99.90;;;;;;5082579;28;19928;-78
2023/05/15 02:48:57;;;;;;;;;;;14.00;99.90;;;;;;5066090;28;20509;-78
2023/05/15 02:51:24;;;;;;;;;;;14.00;99.90;;;;;;5063052;28;19928;-78
2023/05/15 02:53:50;;;;;;;;;;;14.00;99.90;;;;;;5066301;28;20287;-79
2023/05/15 02:56:17;;;;;;;;;;;14.00;99.90;;;;;;5062943;28;20027;-79
2023/05/15 02:58:44;;;;;;;;;;;14.00;99.90;;;;;;5082183;28;20328;-78
2023/05/15 03:01:11;;;;;;;;;;;14.00;99.90;;;;;;5083180;28;19924;-79
2023/05/15 03:03:38;;;;;;;;;;;14.00;99.90;;;;;;5083430;28;19931;-78
2023/05/15 03:06:05;;;;;;;;;;;14.00;99.90;;;;;;5066438;28;19930;-78
2023/05/15 03:08:31;;;;;;;;;;;14.00;99.90;;;;;;5062507;28;19959;-79
2023/05/15 03:10:58;;;;;;;;;;;14.00;99.90;;;;;;5060632;28;19924;-78
2023/05/15 03:13:25;;;;;;;;;;;14.00;99.90;;;;;;5082139;28;19985;-78
2023/05/15 03:15:52;;;;;;;;;;;14.00;99.90;;;;;;5065747;28;20014;-78
2023/05/15 03:18:19;;;;;;;;;;;14.00;99.90;;;;;;5065248;28;19938;-78
2023/05/15 03:20:46;;;;;;;;;;;13.90;99.90;;;;;;5083161;28;20403;-78
2023/05/15 03:23:13;;;;;;;;;;;13.80;99.90;;;;;;5065578;28;19967;-79
2023/05/15 03:25:39;;;;;;;;;;;13.80;99.90;;;;;;5063938;28;19928;-77
2023/05/15 03:28:06;;;;;;;;;;;13.70;99.90;;;;;;5083714;28;20218;-79
2023/05/15 03:30:33;;;;;;;;;;;13.70;99.90;;;;;;5083499;28;19946;-78
2023/05/15 03:33:02;;;;;;;;;;;13.70;99.90;;;;;;5081853;28;19990;-78
2023/05/15 03:35:31;;;;;;;;;;;13.60;99.90;;;;;;5066357;28;19969;-78
2023/05/15 03:37:57;;;;;;;;;;;13.60;99.90;;;;;;5064826;28;20661;-78
2023/05/15 03:40:24;;;;;;;;;;;13.50;99.90;;;;;;5082924;28;19959;-78
2023/05/15 03:42:52;;;;;;;;;;;13.50;99.90;;;;;;5082491;28;19936;-78
2023/05/15 03:45:19;;;;;;;;;;;13.60;99.90;;;;;;5082714;28;20007;-78
2023/05/15 03:47:47;;;;;;;;;;;13.60;99.90;;;;;;5078527;28;19934;-78
2023/05/15 03:50:14;;;;;;;;;;;13.60;99.90;;;;;;5082724;28;19924;-78
2023/05/15 03:52:41;;;;;;;;;;;13.50;99.90;;;;;;5081880;28;20003;-78
2023/05/15 03:55:08;;;;;;;;;;;13.50;99.90;;;;;;5065740;28;20145;-78
2023/05/15 03:57:35;;;;;;;;;;;13.50;99.90;;;;;;5061632;28;20011;-78
2023/05/15 04:00:06;;;;;;;;;;;13.40;99.90;;;;;;5064706;28;20125;-78
2023/05/15 04:02:33;;;;;;;;;;;13.40;99.90;;;;;;5081498;28;20011;-79
2023/05/15 04:04:59;;;;;;;;;;;13.40;99.90;;;;;;5062298;28;19932;-79
2023/05/15 04:07:26;;;;;;;;;;;13.40;99.90;;;;;;5065656;28;19928;-79
2023/05/15 04:09:53;;;;;;;;;;;13.40;99.90;;;;;;5082639;28;19941;-79
2023/05/15 04:12:21;;;;;;;;;;;13.40;99.90;;;;;;5082365;28;19977;-79
2023/05/15 04:14:47;;;;;;;;;;;13.40;99.90;;;;;;5083959;28;19928;-79
2023/05/15 04:17:14;;;;;;;;;;;13.40;99.90;;;;;;5066037;28;19924;-79
2023/05/15 04:19:41;;;;;;;;;;;13.40;99.90;;;;;;5065245;28;20128;-79
2023/05/15 04:22:08;;;;;;;;;;;13.30;99.90;;;;;;5082090;28;19992;-79
2023/05/15 04:24:35;;;;;;;;;;;13.10;99.90;;;;;;5082494;28;19989;-79
2023/05/15 04:27:02;;;;;;;;;;;13.00;99.90;;;;;;5086912;28;19935;-79
2023/05/15 04:29:29;;;;;;;;;;;13.00;99.90;;;;;;5080253;28;19932;-78
2023/05/15 04:31:55;;;;;;;;;;;13.00;99.90;;;;;;5068645;28;19957;-78
2023/05/15 04:34:22;;;;;;;;;;;13.00;99.90;;;;;;5064655;28;19924;-78
2023/05/15 04:36:49;;;;;;;;;;;12.90;99.90;;;;;;5076066;28;19934;-78
2023/05/15 04:39:16;;;;;;;;;;;13.00;99.90;;;;;;5086079;28;19938;-81
2023/05/15 04:41:42;;;;;;;;;;;13.00;99.90;;;;;;5085891;28;19928;-81
2023/05/15 04:44:09;;;;;;;;;;;12.90;99.90;;;;;;5065623;28;20035;-80
2023/05/15 04:46:36;;;;;;;;;;;12.80;99.90;;;;;;5077460;28;19970;-80
2023/05/15 04:49:03;;;;;;;;;;;12.70;99.90;;;;;;5071711;28;19931;-80
2023/05/15 04:51:30;;;;;;;;;;;12.60;99.90;;;;;;5078816;28;20584;-81
2023/05/15 04:53:56;;;;;;;;;;;12.50;99.90;;;;;;5066835;28;19944;-80
2023/05/15 04:56:23;;;;;;;;;;;12.50;99.90;;;;;;5072265;28;19924;-80
2023/05/15 04:58:50;;;;;;;;;;;12.50;99.90;;;;;;5081896;28;19931;-80
2023/05/15 05:01:17;;;;;;;;;;;12.40;99.90;;;;;;5059013;28;19938;-79
2023/05/15 05:03:44;;;;;;;;;;;12.30;99.90;;;;;;5066132;28;19939;-81
2023/05/15 05:06:12;;;;;;;;;;;12.30;99.90;;;;;;5075542;28;19929;-79
2023/05/15 05:08:38;;;;;;;;;;;12.30;99.90;;;;;;5070351;28;19972;-80
2023/05/15 05:11:05;;;;;;;;;;;12.30;99.90;;;;;;5055637;28;19932;-81
2023/05/15 05:13:32;;;;;;;;;;;12.20;99.90;;;;;;5059670;28;19952;-81
2023/05/15 05:15:59;;;;;;;;;;;12.10;99.90;;;;;;5074414;28;19933;-80
2023/05/15 05:18:26;;;;;;;;;;;12.10;99.90;;;;;;5060830;28;20079;-81
2023/05/15 05:21:00;;;;;;;;;;;12.00;99.90;;;;;;5078287;28;19932;-82
2023/05/15 05:23:27;;;;;;;;;;;11.90;99.90;;;;;;5078412;28;19935;-81
2023/05/15 05:25:54;;;;;;;;;;;11.80;99.90;;;;;;5061649;28;19935;-81
2023/05/15 05:28:20;;;;;;;;;;;11.70;99.90;;;;;;5060458;28;20629;-80
2023/05/15 05:30:47;;;;;;;;;;;11.60;99.90;;;;;;5076784;28;20700;-80
2023/05/15 05:33:15;;;;;;;;;;;11.60;99.90;;;;;;5056318;28;19928;-82
2023/05/15 05:35:41;;;;;;;;;;;11.60;99.90;;;;;;5078728;28;19967;-78
2023/05/15 05:38:08;;;;;;;;;;;11.50;99.90;;;;;;5074130;27;19932;-81
2023/05/15 05:40:36;;;;;;;;;;;11.50;99.90;;;;;;5058167;28;19928;-81
2023/05/15 05:43:03;;;;;;;;;;;11.50;99.90;;;;;;5076651;28;20307;-81
2023/05/15 05:45:30;;;;;;;;;;;11.50;99.90;;;;;;5070420;28;19928;-81
2023/05/15 05:47:58;;;;;;;;;;;11.50;99.90;;;;;;5054311;28;20241;-79
2023/05/15 05:50:25;;;;;;;;;;;11.40;99.90;;;;;;5076157;28;19936;-80
2023/05/15 05:52:51;;;;;;;;;;;11.40;99.90;;;;;;5073165;28;19928;-81
2023/05/15 05:55:18;;;;;;;;;;;11.40;99.90;;;;;;5079865;28;19950;-81
2023/05/15 05:57:45;;;;;;;;;;;11.40;99.90;;;;;;5055575;28;19928;-80
2023/05/15 06:00:14;;;;;;;;;;;11.40;99.90;;;;;;5057780;28;20001;-80
2023/05/15 06:02:42;;;;;;;;;;;11.40;99.90;;;;;;5082162;28;20026;-80
2023/05/15 06:05:09;;;;;;;;;;;11.40;99.90;;;;;;5077191;28;19955;-80
2023/05/15 06:07:35;;;;;;;;;;;11.50;99.90;;;;;;5057079;28;20015;-80
2023/05/15 06:10:02;;;;;;;;;;;11.50;99.90;;;;;;5059036;28;19939;-80
2023/05/15 06:12:29;;;;;;;;;;;11.50;99.90;;;;;;5073574;28;19928;-81
2023/05/15 06:14:56;;;;;;;;;;;11.50;99.90;;;;;;5074622;28;19930;-81
2023/05/15 06:17:23;;;;;;;;;;;11.60;99.90;;;;;;5075705;28;19928;-80
2023/05/15 06:19:50;;;;;;;;;;;11.60;99.90;;;;;;5062306;28;20344;-81
2023/05/15 06:22:16;;;;;;;;;;;11.70;99.90;;;;;;5065196;28;19924;-81
2023/05/15 06:24:43;;;;;;;;;;;11.70;99.90;;;;;;5079992;28;20383;-80
2023/05/15 06:27:10;;;;;;;;;;;11.70;99.90;;;;;;5061190;28;19925;-80
2023/05/15 06:29:37;;;;;;;;;;;11.70;99.90;;;;;;5065698;28;19989;-80
2023/05/15 06:32:04;;;;;;;;;;;11.60;99.90;;;;;;5044595;28;20409;-80
2023/05/15 06:34:30;;;;;;;;;;;11.60;99.90;;;;;;5073432;28;20733;-80
2023/05/15 06:36:57;;;;;;;;;;;11.70;99.90;;;;;;5079607;28;20386;-80
2023/05/15 06:39:24;;;;;;;;;;;11.70;99.90;;;;;;5065837;28;19924;-79
2023/05/15 06:41:56;;;;;;;;;;;11.70;99.90;;;;;;5082503;28;19972;-80
2023/05/15 06:44:23;;;;;;;;;;;11.80;99.90;;;;;;5046862;28;20260;-79
2023/05/15 06:46:51;;;;;;;;;;;11.80;99.90;;;;;;5044341;28;20018;-79
2023/05/15 06:49:18;;;;;;;;;;;11.80;99.90;;;;;;5072195;28;19936;-81
2023/05/15 06:51:45;;;;;;;;;;;11.80;99.90;;;;;;5068225;28;20019;-80
2023/05/15 06:54:11;;;;;;;;;;;11.80;99.90;;;;;;5059674;28;19928;-79
2023/05/15 06:56:39;;;;;;;;;;;11.80;99.90;;;;;;5061521;28;20278;-80
2023/05/15 06:59:05;;;;;;;;;;;12.00;99.90;;;;;;5080969;28;19924;-78
2023/05/15 07:01:32;;;;;;;;;;;12.10;99.90;;;;;;5064300;28;19925;-79
2023/05/15 07:03:59;;;;;;;;;;;12.10;99.90;;;;;;5077896;28;20360;-79
2023/05/15 07:06:26;;;;;;;;;;;12.10;99.90;;;;;;5077958;28;19967;-79
2023/05/15 07:08:53;;;;;;;;;;;12.00;99.90;;;;;;5081195;28;19975;-79
2023/05/15 07:11:20;;;;;;;;;;;12.00;99.90;;;;;;5082310;28;20003;-79
2023/05/15 07:13:47;;;;;;;;;;;11.90;99.90;;;;;;5063990;28;19924;-79
2023/05/15 07:16:15;;;;;;;;;;;11.90;99.90;;;;;;5066019;28;19954;-79
2023/05/15 07:18:42;;;;;;;;;;;11.80;99.90;;;;;;5067568;28;20485;-80
2023/05/15 07:21:09;;;;;;;;;;;11.80;99.90;;;;;;5082304;28;19932;-79
2023/05/15 07:23:36;;;;;;;;;;;11.90;99.90;;;;;;5081591;28;19940;-79
2023/05/15 07:26:03;;;;;;;;;;;11.80;99.90;;;;;;5068666;28;20027;-80
2023/05/15 07:28:29;;;;;;;;;;;11.90;99.90;;;;;;5053490;28;19998;-80
2023/05/15 07:30:56;;;;;;;;;;;11.90;99.90;;;;;;5045680;28;20027;-79
2023/05/15 07:33:23;;;;;;;;;;;11.80;99.90;;;;;;5072008;28;20019;-79
2023/05/15 07:35:49;;;;;;;;;;;11.90;99.90;;;;;;5083357;28;20046;-79
2023/05/15 07:38:17;;;;;;;;;;;11.80;99.90;;;;;;5080681;28;19928;-80
2023/05/15 07:40:43;;;;;;;;;;;11.80;99.90;;;;;;5065827;28;19928;-79
2023/05/15 07:43:10;;;;;;;;;;;11.80;99.90;;;;;;5081607;28;19943;-79
2023/05/15 07:45:37;;;;;;;;;;;11.80;99.90;;;;;;5058165;28;20289;-79
2023/05/15 07:48:16;;;;;;;;;;;11.90;99.90;;;;;;5073737;28;19966;-80
2023/05/15 07:50:44;;;;;;;;;;;11.90;99.90;;;;;;5072354;28;19932;-80
2023/05/15 07:53:17;;;;;;;;;;;12.00;99.90;;;;;;5066215;28;19946;-80
2023/05/15 07:55:44;;;;;;;;;;;12.00;99.90;;;;;;5070339;28;19981;-81
2023/05/15 07:58:11;;;;;;;;;;;12.00;99.90;;;;;;5066061;28;19935;-79
2023/05/15 08:00:38;;;;;;;;;;;12.00;99.90;;;;;;5056783;28;19929;-80
2023/05/15 08:03:05;;;;;;;;;;;12.10;99.90;;;;;;5087043;28;20738;-80
2023/05/15 08:05:32;;;;;;;;;;;12.10;99.90;;;;;;5061829;28;20042;-79
2023/05/15 08:07:59;;;;;;;;;;;12.20;99.90;;;;;;5078469;28;19939;-78
2023/05/15 08:10:26;;;;;;;;;;;12.30;99.90;;;;;;5079688;28;20260;-81
2023/05/15 08:12:53;;;;;;;;;;;12.30;99.90;;;;;;5079052;28;20035;-81
2023/05/15 08:15:20;;;;;;;;;;;12.40;99.90;;;;;;5059316;28;19928;-81
2023/05/15 08:17:48;;;;;;;;;;;12.60;99.90;;;;;;5065136;28;20039;-81
2023/05/15 08:20:15;;;;;;;;;;;12.70;99.90;;;;;;5079373;28;19927;-81
2023/05/15 08:22:42;;;;;;;;;;;12.90;99.90;;;;;;5066502;28;19971;-82
2023/05/15 08:25:09;;;;;;;;;;;13.10;99.90;;;;;;5068064;28;19925;-81
2023/05/15 08:27:36;;;;;;;;;;;13.30;99.90;;;;;;5078244;28;19928;-82
2023/05/15 08:30:03;;;;;;;;;;;13.40;99.90;;;;;;5081075;28;20588;-82
2023/05/15 08:32:31;;;;;;;;;;;13.50;99.90;;;;;;5089176;28;19950;-82
2023/05/15 08:34:57;;;;;;;;;;;13.50;99.90;;;;;;5056629;28;20478;-82
2023/05/15 08:37:24;;;;;;;;;;;13.70;99.90;;;;;;5060118;28;20586;-81
2023/05/15 08:39:51;;;;;;;;;;;13.70;99.90;;;;;;5078667;28;19936;-81
2023/05/15 08:42:27;;;;;;;;;;;13.70;99.90;;;;;;5079691;28;20091;-80
2023/05/15 08:44:54;;;;;;;;;;;13.70;99.90;;;;;;5078921;28;20294;-81
2023/05/15 08:47:21;;;;;;;;;;;13.90;99.90;;;;;;5078009;28;19975;-81
2023/05/15 08:49:55;;;;;;;;;;;14.00;99.90;;;;;;5079490;28;19985;-81
2023/05/15 08:52:22;;;;;;;;;;;13.90;99.90;;;;;;5077886;28;20015;-81
2023/05/15 08:54:49;;;;;;;;;;;14.00;99.90;;;;;;5078141;28;19985;-81
2023/05/15 08:57:16;;;;;;;;;;;14.10;99.90;;;;;;5078250;28;19928;-81
2023/05/15 08:59:43;;;;;;;;;;;14.10;99.90;;;;;;5062676;28;20088;-81
2023/05/15 09:02:11;;;;;;;;;;;13.90;99.90;;;;;;5078359;28;19928;-81
2023/05/15 09:04:38;;;;;;;;;;;13.80;99.90;;;;;;5074505;28;20103;-81
2023/05/15 09:07:04;;;;;;;;;;;13.90;99.90;;;;;;5076895;28;19928;-81
2023/05/15 09:09:31;;;;;;;;;;;14.10;99.90;;;;;;5046081;28;19924;-81
2023/05/15 09:12:00;;;;;;;;;;;14.10;99.90;;;;;;5040036;28;20292;-82
2023/05/15 09:14:28;;;;;;;;;;;14.20;99.90;;;;;;5083163;28;19928;-82
2023/05/15 09:16:54;;;;;;;;;;;14.20;99.90;;;;;;5080446;28;20703;-81
2023/05/15 09:19:21;;;;;;;;;;;14.00;99.90;;;;;;5060122;28;19971;-81
2023/05/15 09:21:48;;;;;;;;;;;13.90;99.90;;;;;;5076665;28;19932;-81
2023/05/15 09:24:19;;;;;;;;;;;13.90;98.50;;;;;;5078408;28;19932;-81
2023/05/15 09:26:46;;;;;;;;;;;13.80;97.60;;;;;;5077009;28;20007;-81
2023/05/15 09:29:16;;;;;;;;;;;13.80;97.10;;;;;;5079173;28;19935;-81
2023/05/15 09:31:45;;;;;;;;;;;13.90;98.30;;;;;;5089180;28;19935;-81
2023/05/15 09:34:15;;;;;;;;;;;13.90;97.70;;;;;;5080262;28;19935;-82
2023/05/15 09:36:48;;;;;;;;;;;14.00;98.40;;;;;;5056574;28;20044;-81
2023/05/15 09:39:16;;;;;;;;;;;14.30;98.90;;;;;;5057892;28;19959;-82
2023/05/15 09:41:43;;;;;;;;;;;14.40;98.00;;;;;;5075136;28;20668;-82
2023/05/15 09:44:16;;;;;;;;;;;14.20;97.20;;;;;;5079094;28;19932;-83
2023/05/15 09:46:50;;;;;;;;;;;14.20;97.70;;;;;;5069541;28;19932;-82
2023/05/15 09:49:17;;;;;;;;;;;14.30;96.90;;;;;;5056182;28;19972;-82
2023/05/15 09:51:45;;;;;;;;;;;14.30;97.60;;;;;;5080199;28;20410;-81
2023/05/15 09:54:15;;;;;;;;;;;14.20;98.40;;;;;;5062890;28;19979;-82
2023/05/15 09:56:46;;;;;;;;;;;14.40;98.00;;;;;;5068974;28;19950;-82
2023/05/15 09:59:14;;;;;;;;;;;14.50;97.90;;;;;;5074494;28;20001;-83
2023/05/15 10:01:42;;;;;;;;;;;14.50;97.40;;;;;;5077018;28;19950;-82
2023/05/15 10:04:09;;;;;;;;;;;14.50;97.30;;;;;;5076887;28;19928;-80
2023/05/15 10:06:36;;;;;;;;;;;14.40;97.10;;;;;;5056721;28;19974;-82
2023/05/15 10:09:05;;;;;;;;;;;14.50;96.90;;;;;;5073129;28;20118;-81
2023/05/15 10:11:35;;;;;;;;;;;14.60;96.20;;;;;;5078575;28;19928;-82
2023/05/15 10:14:03;;;;;;;;;;;14.80;95.80;;;;;;5080604;28;19927;-80
2023/05/15 10:16:31;;;;;;;;;;;14.80;94.10;;;;;;5078882;28;19939;-80
2023/05/15 10:18:59;;;;;;;;;;;14.90;94.90;;;;;;5035304;28;20729;-80
2023/05/15 10:21:31;;;;;;;;;;;15.00;94.60;;;;;;5068508;28;19929;-80
2023/05/15 10:23:58;;;;;;;;;;;15.10;95.10;;;;;;5077387;28;19928;-80
2023/05/15 10:26:30;;;;;;;;;;;15.10;94.10;;;;;;5062178;28;20726;-81
2023/05/15 10:28:57;;;;;;;;;;;15.10;94.70;;;;;;5075284;28;20411;-80
2023/05/15 10:31:24;;;;;;;;;;;15.00;93.80;;;;;;5058298;28;20015;-80
2023/05/15 10:33:51;;;;;;;;;;;15.10;95.30;;;;;;5068894;28;19963;-80
2023/05/15 10:36:18;;;;;;;;;;;15.40;92.60;;;;;;5052549;28;20377;-80
2023/05/15 10:38:45;;;;;;;;;;;15.20;92.50;;;;;;5078549;28;20001;-81
2023/05/15 10:41:12;;;;;;;;;;;15.10;92.30;;;;;;5074106;28;19935;-80
2023/05/15 10:43:43;;;;;;;;;;;15.10;92.70;;;;;;5055007;28;19928;-81
2023/05/15 10:46:10;;;;;;;;;;;15.20;93.10;;;;;;5074987;28;19938;-80
2023/05/15 10:48:37;;;;;;;;;;;15.20;92.10;;;;;;5057376;28;19971;-81
2023/05/15 10:51:04;;;;;;;;;;;15.30;91.30;;;;;;5074829;28;20012;-81
2023/05/15 10:53:31;;;;;;;;;;;15.40;92.00;;;;;;5055829;28;19943;-82
2023/05/15 10:55:58;;;;;;;;;;;15.50;92.10;;;;;;5091498;28;19946;-80
2023/05/15 10:58:25;;;;;;;;;;;15.60;90.90;;;;;;5051668;28;19932;-81
2023/05/15 11:00:51;;;;;;;;;;;15.50;91.50;;;;;;5054837;28;19928;-80
2023/05/15 11:03:36;;;;;;;;;;;15.60;92.70;;;;;;5063206;28;20054;-80
2023/05/15 11:06:14;;;;;;;;;;;15.90;92.30;;;;;;5073908;28;19928;-81
2023/05/15 11:08:41;;;;;;;;;;;16.00;93.10;;;;;;5045602;28;19982;-80
2023/05/15 11:11:08;;;;;;;;;;;16.10;93.00;;;;;;5067957;28;19981;-80
2023/05/15 11:13:54;;;;;;;;;;;16.00;93.00;;;;;;5073384;28;19932;-79
2023/05/15 11:16:40;;;;;;;;;;;16.20;94.40;;;;;;5068137;28;20623;-80
2023/05/15 11:19:25;;;;;;;;;;;16.30;94.30;;;;;;5072726;28;19982;-80
2023/05/15 11:21:55;;;;;;;;;;;16.10;92.40;;;;;;5074337;28;20019;-80
2023/05/15 11:24:28;;;;;;;;;;;16.60;93.00;;;;;;5054674;28;19963;-82
2023/05/15 11:26:58;;;;;;;;;;;16.50;93.50;;;;;;5067302;28;19963;-81
2023/05/15 11:29:25;;;;;;;;;;;16.30;92.50;;;;;;5078418;28;20414;-81
2023/05/15 11:31:51;;;;;;;;;;;16.40;93.50;;;;;;5071300;28;20436;-80
2023/05/15 11:34:33;;;;;;;;;;;16.00;93.10;;;;;;5043251;28;20310;-81
2023/05/15 11:37:00;;;;;;;;;;;15.90;92.80;;;;;;5073539;28;20374;-80
2023/05/15 11:39:27;;;;;;;;;;;16.00;93.50;;;;;;5068444;28;19938;-80
2023/05/15 11:41:54;;;;;;;;;;;16.20;94.40;;;;;;5054547;28;19923;-79
2023/05/15 11:44:21;;;;;;;;;;;16.30;93.90;;;;;;5075312;28;19934;-82
2023/05/15 11:46:49;;;;;;;;;;;16.10;94.80;;;;;;5056279;28;20671;-81
2023/05/15 11:49:20;;;;;;;;;;;15.90;94.20;;;;;;5058917;28;20190;-80
2023/05/15 11:51:47;;;;;;;;;;;16.10;93.90;;;;;;5083135;28;20283;-79
2023/05/15 11:54:14;;;;;;;;;;;16.20;94.40;;;;;;5059196;28;19923;-81
2023/05/15 11:56:42;;;;;;;;;;;15.80;93.00;;;;;;5089734;28;19997;-80
2023/05/15 11:59:09;;;;;;;;;;;15.70;93.50;;;;;;5050584;28;20324;-81
2023/05/15 12:01:42;;;;;;;;;;;15.70;93.70;;;;;;5054532;28;20019;-80
2023/05/15 12:04:13;;;;;;;;;;;16.30;92.50;;;;;;5053947;28;19928;-82
2023/05/15 12:06:41;;;;;;;;;;;16.70;92.20;;;;;;5038036;28;20307;-81
2023/05/15 12:09:11;;;;;;;;;;;17.30;91.60;;;;;;5070199;28;19931;-81
2023/05/15 12:11:39;;;;;;;;;;;18.00;91.30;;;;;;5075552;28;20034;-81
2023/05/15 12:14:09;;;;;;;;;;;17.80;91.10;;;;;;5074977;28;20023;-81
2023/05/15 12:16:36;;;;;;;;;;;17.40;90.80;;;;;;5077379;28;20004;-81
2023/05/15 12:19:03;;;;;;;;;;;17.30;91.60;;;;;;5056819;28;20406;-81
2023/05/15 12:21:30;;;;;;;;;;;17.70;91.10;;;;;;5070756;28;19932;-80
2023/05/15 12:23:57;;;;;;;;;;;17.30;91.60;;;;;;5073113;28;19934;-80
2023/05/15 12:26:34;;;;;;;;;;;16.70;92.30;;;;;;5076045;28;20537;-81
2023/05/15 12:29:02;;;;;;;;;;;16.40;93.30;;;;;;5075497;28;20093;-81
2023/05/15 12:31:28;;;;;;;;;;;16.40;93.00;;;;;;5059002;28;19928;-82
2023/05/15 12:33:57;;;;;;;;;;;16.50;92.80;;;;;;5055941;28;20406;-81
2023/05/15 12:36:25;;;;;;;;;;;17.20;94.30;;;;;;5060197;28;19977;-81
2023/05/15 12:38:52;;;;;;;;;;;17.30;94.60;;;;;;5078340;28;20098;-79
2023/05/15 12:41:20;;;;;;;;;;;17.10;92.80;;;;;;5077341;28;19932;-79
2023/05/15 12:43:47;;;;;;;;;;;16.80;92.50;;;;;;5061490;28;20318;-79
2023/05/15 12:46:14;;;;;;;;;;;17.30;92.80;;;;;;5079306;28;20023;-79
2023/05/15 12:48:42;;;;;;;;;;;18.00;92.60;;;;;;5082718;28;20019;-81
2023/05/15 12:51:08;;;;;;;;;;;18.30;91.80;;;;;;5082686;28;20437;-79
2023/05/15 12:53:38;;;;;;;;;;;18.00;91.70;;;;;;5064755;28;20356;-79
2023/05/15 12:56:05;;;;;;;;;;;17.80;92.20;;;;;;5066272;28;20014;-79
2023/05/15 12:58:32;;;;;;;;;;;17.50;92.10;;;;;;5064966;28;19928;-79
2023/05/15 13:01:01;;;;;;;;;;;16.80;93.00;;;;;;5057722;28;19951;-79
2023/05/15 13:03:28;;;;;;;;;;;16.60;93.90;;;;;;5067159;28;20410;-79
2023/05/15 13:05:55;;;;;;;;;;;16.50;94.00;;;;;;5063203;28;20048;-78
2023/05/15 13:08:22;;;;;;;;;;;16.50;93.30;;;;;;5081114;28;20022;-78
2023/05/15 13:10:54;;;;;;;;;;;16.80;93.40;;;;;;5082754;28;19989;-79
2023/05/15 13:13:21;;;;;;;;;;;17.70;93.30;;;;;;5081074;28;19931;-80
2023/05/15 13:15:49;;;;;;;;;;;19.00;92.80;;;;;;5062112;28;19924;-79
2023/05/15 13:18:17;;;;;;;;;;;19.50;90.80;;;;;;5068425;28;20015;-79
2023/05/15 13:20:50;;;;;;;;;;;19.20;91.50;;;;;;5082344;28;20060;-79
2023/05/15 13:23:17;;;;;;;;;;;18.80;92.00;;;;;;5081044;28;19938;-79
2023/05/15 13:25:44;;;;;;;;;;;19.10;91.70;;;;;;5081405;28;19931;-80
2023/05/15 13:28:12;;;;;;;;;;;19.30;89.90;;;;;;5080815;28;20032;-80
2023/05/15 13:30:40;;;;;;;;;;;19.80;88.30;;;;;;5082044;28;20267;-80
2023/05/15 13:33:07;;;;;;;;;;;20.40;90.20;;;;;;5060499;28;20020;-80
2023/05/15 13:35:35;;;;;;;;;;;21.20;87.40;;;;;;5075901;28;20023;-80
2023/05/15 13:38:01;;;;;;;;;;;21.80;80.90;;;;;;5079990;28;19963;-80
2023/05/15 13:40:29;;;;;;;;;;;22.00;79.80;;;;;;5081475;28;19946;-80
2023/05/15 13:42:56;;;;;;;;;;;22.10;79.40;;;;;;5063760;28;20019;-80
2023/05/15 13:45:25;;;;;;;;;;;22.90;81.70;;;;;;5081120;28;19925;-80
2023/05/15 13:47:53;;;;;;;;;;;22.00;79.50;;;;;;5063623;28;19924;-81
2023/05/15 13:50:20;;;;;;;;;;;21.80;79.80;;;;;;5063879;28;20022;-80
2023/05/15 13:52:47;;;;;;;;;;;20.90;78.60;;;;;;5063372;28;19935;-82
2023/05/15 13:55:14;;;;;;;;;;;21.70;79.90;;;;;;5064375;28;19927;-81
2023/05/15 13:57:41;;;;;;;;;;;21.30;80.60;;;;;;5080307;28;19981;-80
2023/05/15 14:00:12;;;;;;;;;;;20.40;83.60;;;;;;5063822;28;20027;-80
2023/05/15 14:02:39;;;;;;;;;;;19.70;84.80;;;;;;5079557;28;19924;-81
2023/05/15 14:05:07;;;;;;;;;;;18.90;86.60;;;;;;5080037;28;19924;-82
2023/05/15 14:07:35;;;;;;;;;;;18.40;88.00;;;;;;5076543;28;20030;-81
2023/05/15 14:10:02;;;;;;;;;;;18.40;90.00;;;;;;5061130;28;19924;-81
2023/05/15 14:12:32;;;;;;;;;;;19.80;88.10;;;;;;5076310;28;19935;-81
2023/05/15 14:15:00;;;;;;;;;;;20.00;88.40;;;;;;5057167;28;19935;-81
2023/05/15 14:17:27;;;;;;;;;;;19.30;85.60;;;;;;5057843;28;20593;-80
2023/05/15 14:19:53;;;;;;;;;;;18.30;87.80;;;;;;5059881;28;20006;-79